Time;durP1;ratioP1;P1;durP2;ratioP2;P2;SDS_P1;SDS_P2;PMS_P1;PMS_P2;Temp;Humidity;BMP_temperature;BMP_pressure;BME280_temperature;BME280_humidity;BME280_pressure;Samples;Min_cycle;Max_cycle;Signal;HPM_P1;HPM_P2
2022/03/04 00:01:18;;;;;;;;;59.00;46.00;;;;;;;;5051042;27;52434;-66
2022/03/04 00:03:44;;;;;;;;;60.25;49.25;;;;;;;;5049139;27;51648;-66
2022/03/04 00:06:10;;;;;;;;;58.25;47.00;;;;;;;;5051768;27;51694;-67
2022/03/04 00:08:36;;;;;;;;;56.50;46.25;;;;;;;;5050036;27;51223;-67
2022/03/04 00:11:02;;;;;;;;;50.75;40.25;;;;;;;;5047277;27;51092;-65
2022/03/04 00:13:29;;;;;;;;;58.00;48.50;;;;;;;;5048751;27;51816;-67
2022/03/04 00:15:54;;;;;;;;;59.75;49.00;;;;;;;;5050218;27;53242;-66
2022/03/04 00:18:19;;;;;;;;;56.25;45.50;;;;;;;;5053327;27;51060;-67
2022/03/04 00:20:44;;;;;;;;;58.00;48.00;;;;;;;;5049189;27;53471;-67
2022/03/04 00:23:10;;;;;;;;;55.75;47.25;;;;;;;;5048272;27;52460;-67
2022/03/04 00:25:35;;;;;;;;;55.75;45.25;;;;;;;;5051635;27;52602;-68
2022/03/04 00:28:00;;;;;;;;;57.75;48.00;;;;;;;;5052353;27;51077;-67
2022/03/04 00:30:25;;;;;;;;;56.50;46.00;;;;;;;;5050404;27;51520;-67
2022/03/04 00:32:51;;;;;;;;;59.25;44.50;;;;;;;;5048333;27;52521;-66
2022/03/04 00:35:16;;;;;;;;;55.75;46.00;;;;;;;;5048329;27;51294;-66
2022/03/04 00:37:41;;;;;;;;;56.75;47.25;;;;;;;;5053930;27;53227;-68
2022/03/04 00:40:07;;;;;;;;;57.50;47.00;;;;;;;;5065106;27;51391;-67
2022/03/04 00:42:32;;;;;;;;;56.00;46.00;;;;;;;;5046959;27;52076;-67
2022/03/04 00:44:58;;;;;;;;;59.25;48.50;;;;;;;;5050423;27;51265;-67
2022/03/04 00:47:23;;;;;;;;;58.00;46.00;;;;;;;;5048883;27;51185;-67
2022/03/04 00:49:48;;;;;;;;;61.75;51.00;;;;;;;;5048850;27;51263;-66
2022/03/04 00:52:13;;;;;;;;;61.75;50.25;;;;;;;;5051731;27;51149;-66
2022/03/04 00:54:39;;;;;;;;;66.50;51.75;;;;;;;;5051996;27;51509;-67
2022/03/04 00:57:04;;;;;;;;;64.25;51.50;;;;;;;;5050664;27;52619;-67
2022/03/04 00:59:29;;;;;;;;;61.50;50.25;;;;;;;;5053257;27;51358;-67
2022/03/04 01:01:54;;;;;;;;;64.00;52.00;;;;;;;;5053763;27;52224;-67
2022/03/04 01:04:20;;;;;;;;;64.67;52.33;;;;;;;;5054627;27;51246;-68
2022/03/04 01:06:45;;;;;;;;;65.50;53.00;;;;;;;;5055149;27;51099;-68
2022/03/04 01:09:12;;;;;;;;;63.75;50.75;;;;;;;;5053135;27;51120;-68
2022/03/04 01:11:37;;;;;;;;;63.50;52.00;;;;;;;;5053079;27;51423;-69
2022/03/04 01:14:03;;;;;;;;;64.50;52.00;;;;;;;;5052040;27;53123;-68
2022/03/04 01:16:28;;;;;;;;;63.50;51.25;;;;;;;;5054848;27;52731;-68
2022/03/04 01:18:53;;;;;;;;;67.25;54.00;;;;;;;;5050687;27;51298;-67
2022/03/04 01:21:19;;;;;;;;;66.50;53.75;;;;;;;;5054160;27;53316;-67
2022/03/04 01:23:44;;;;;;;;;71.50;55.25;;;;;;;;5056878;27;51291;-68
2022/03/04 01:26:09;;;;;;;;;64.50;52.00;;;;;;;;5054419;27;51262;-68
2022/03/04 01:28:35;;;;;;;;;66.50;53.50;;;;;;;;5055996;27;51309;-67
2022/03/04 01:31:00;;;;;;;;;68.75;53.50;;;;;;;;5053811;27;53255;-70
2022/03/04 01:33:26;;;;;;;;;68.25;54.75;;;;;;;;5054766;27;53489;-66
2022/03/04 01:35:51;;;;;;;;;71.75;57.00;;;;;;;;5053339;27;54370;-67
2022/03/04 01:38:16;;;;;;;;;73.75;57.75;;;;;;;;5057327;27;51443;-68
2022/03/04 01:40:42;;;;;;;;;70.00;55.50;;;;;;;;5051137;27;51264;-67
2022/03/04 01:43:07;;;;;;;;;77.75;58.50;;;;;;;;5052936;27;51041;-68
2022/03/04 01:45:32;;;;;;;;;75.75;62.00;;;;;;;;5058860;27;51261;-68
2022/03/04 01:47:57;;;;;;;;;72.25;56.75;;;;;;;;5055464;27;51322;-68
2022/03/04 01:50:24;;;;;;;;;79.50;63.25;;;;;;;;5057658;27;51930;-67
2022/03/04 01:52:49;;;;;;;;;74.25;57.75;;;;;;;;5050879;27;51202;-68
2022/03/04 01:55:14;;;;;;;;;75.75;58.00;;;;;;;;5054290;27;51059;-68
2022/03/04 01:57:39;;;;;;;;;72.50;57.75;;;;;;;;5053289;27;51545;-67
2022/03/04 02:00:07;;;;;;;;;65.25;54.75;;;;;;;;5052091;27;52289;-68
2022/03/04 02:02:32;;;;;;;;;69.50;56.75;;;;;;;;5058720;27;51207;-66
2022/03/04 02:04:57;;;;;;;;;70.75;57.50;;;;;;;;5054482;27;51091;-68
2022/03/04 02:07:23;;;;;;;;;72.00;57.00;;;;;;;;5055593;27;51275;-68
2022/03/04 02:09:48;;;;;;;;;70.50;56.75;;;;;;;;5052545;27;51930;-68
2022/03/04 02:12:13;;;;;;;;;75.75;58.00;;;;;;;;5052033;27;51212;-68
2022/03/04 02:14:38;;;;;;;;;68.50;54.75;;;;;;;;5051382;27;51276;-67
2022/03/04 02:17:05;;;;;;;;;64.50;52.25;;;;;;;;5056501;27;53132;-68
2022/03/04 02:19:30;;;;;;;;;75.25;57.75;;;;;;;;5052886;27;51205;-68
2022/03/04 02:22:00;;;;;;;;;68.75;56.00;;;;;;;;5056306;27;51233;-67
2022/03/04 02:24:26;;;;;;;;;68.75;54.75;;;;;;;;5054311;27;51293;-67
2022/03/04 02:26:52;;;;;;;;;69.75;55.00;;;;;;;;5058096;27;51576;-69
2022/03/04 02:29:18;;;;;;;;;71.50;56.00;;;;;;;;5051754;27;53864;-68
2022/03/04 02:31:44;;;;;;;;;70.25;56.00;;;;;;;;5052564;27;53401;-68
2022/03/04 02:34:09;;;;;;;;;70.75;55.50;;;;;;;;5058670;27;51584;-68
2022/03/04 02:36:34;;;;;;;;;69.00;55.00;;;;;;;;5053535;27;51429;-67
2022/03/04 02:39:00;;;;;;;;;67.00;54.00;;;;;;;;5054741;27;52206;-67
2022/03/04 02:41:25;;;;;;;;;69.25;53.75;;;;;;;;5062575;27;51310;-67
2022/03/04 02:43:51;;;;;;;;;66.25;52.75;;;;;;;;5071692;27;51643;-67
2022/03/04 02:46:16;;;;;;;;;67.00;54.00;;;;;;;;5057263;27;53461;-68
2022/03/04 02:48:41;;;;;;;;;61.75;50.75;;;;;;;;5056508;27;53387;-68
2022/03/04 02:51:07;;;;;;;;;54.75;44.75;;;;;;;;5051044;27;51288;-69
2022/03/04 02:53:32;;;;;;;;;53.00;44.75;;;;;;;;5052204;27;51223;-67
2022/03/04 02:55:57;;;;;;;;;55.50;46.00;;;;;;;;5054730;27;51294;-67
2022/03/04 02:58:23;;;;;;;;;58.25;46.50;;;;;;;;5052868;27;53254;-67
2022/03/04 03:00:48;;;;;;;;;52.50;42.75;;;;;;;;5055356;27;51166;-68
2022/03/04 03:03:13;;;;;;;;;53.00;43.00;;;;;;;;5054622;27;53252;-68
2022/03/04 03:05:38;;;;;;;;;54.25;45.00;;;;;;;;5058915;27;51611;-68
2022/03/04 03:08:04;;;;;;;;;76.50;59.50;;;;;;;;5055312;27;52717;-68
2022/03/04 03:10:31;;;;;;;;;69.25;55.50;;;;;;;;5051115;27;51181;-68
2022/03/04 03:12:56;;;;;;;;;50.50;42.25;;;;;;;;5054999;27;51313;-68
2022/03/04 03:15:21;;;;;;;;;52.75;44.25;;;;;;;;5054917;27;51130;-68
2022/03/04 03:17:47;;;;;;;;;61.75;49.00;;;;;;;;5054796;27;51838;-68
2022/03/04 03:20:12;;;;;;;;;62.25;51.00;;;;;;;;5053552;27;51193;-68
2022/03/04 03:22:37;;;;;;;;;63.25;52.00;;;;;;;;5050368;27;51238;-67
2022/03/04 03:25:04;;;;;;;;;67.25;53.75;;;;;;;;5054064;27;51500;-68
2022/03/04 03:27:29;;;;;;;;;60.50;50.00;;;;;;;;5053025;27;53833;-68
2022/03/04 03:29:54;;;;;;;;;62.00;50.25;;;;;;;;5052204;27;51130;-68
2022/03/04 03:32:19;;;;;;;;;63.25;51.75;;;;;;;;5053430;27;51361;-68
2022/03/04 03:34:45;;;;;;;;;63.50;50.25;;;;;;;;5051652;27;51112;-68
2022/03/04 03:37:10;;;;;;;;;61.00;49.25;;;;;;;;5050177;27;52641;-67
2022/03/04 03:39:37;;;;;;;;;62.50;51.25;;;;;;;;5054499;27;51611;-67
2022/03/04 03:42:03;;;;;;;;;65.25;50.50;;;;;;;;5055405;27;51231;-67
2022/03/04 03:44:29;;;;;;;;;64.00;51.00;;;;;;;;5052536;27;51278;-67
2022/03/04 03:46:55;;;;;;;;;62.75;51.00;;;;;;;;5052894;27;51767;-67
2022/03/04 03:49:20;;;;;;;;;61.25;50.75;;;;;;;;5053753;27;51095;-67
2022/03/04 03:51:45;;;;;;;;;57.25;48.50;;;;;;;;5059707;27;51505;-67
2022/03/04 03:54:11;;;;;;;;;60.75;48.50;;;;;;;;5055030;27;51320;-66
2022/03/04 03:56:36;;;;;;;;;59.25;48.25;;;;;;;;5060637;27;52055;-66
2022/03/04 03:59:01;;;;;;;;;58.75;49.00;;;;;;;;5060668;27;51194;-67
2022/03/04 04:01:27;;;;;;;;;58.50;48.50;;;;;;;;5054160;27;52782;-67
2022/03/04 04:03:52;;;;;;;;;60.75;49.75;;;;;;;;5057578;27;53111;-67
2022/03/04 04:06:17;;;;;;;;;58.50;48.50;;;;;;;;5051556;27;53567;-67
2022/03/04 04:08:43;;;;;;;;;57.00;47.50;;;;;;;;5059598;27;51510;-69
2022/03/04 04:11:08;;;;;;;;;53.00;42.50;;;;;;;;5054584;27;53381;-67
2022/03/04 04:13:33;;;;;;;;;55.75;45.75;;;;;;;;5054052;27;51484;-67
2022/03/04 04:15:59;;;;;;;;;55.50;43.75;;;;;;;;5056676;27;52087;-66
2022/03/04 04:18:25;;;;;;;;;56.00;46.00;;;;;;;;5057729;27;51171;-67
2022/03/04 04:20:50;;;;;;;;;54.50;45.00;;;;;;;;5059680;27;53416;-67
2022/03/04 04:23:15;;;;;;;;;62.00;46.25;;;;;;;;5054550;27;51566;-66
2022/03/04 04:25:40;;;;;;;;;53.25;45.00;;;;;;;;5057382;27;51222;-66
2022/03/04 04:28:06;;;;;;;;;57.50;46.50;;;;;;;;5058463;27;51341;-67
2022/03/04 04:30:31;;;;;;;;;55.50;46.50;;;;;;;;5058307;27;51226;-67
2022/03/04 04:32:56;;;;;;;;;52.75;44.00;;;;;;;;5058404;27;51405;-67
2022/03/04 04:35:22;;;;;;;;;55.50;46.25;;;;;;;;5056651;27;51168;-67
2022/03/04 04:37:47;;;;;;;;;62.25;46.75;;;;;;;;5057320;27;51213;-67
2022/03/04 04:40:12;;;;;;;;;51.75;43.50;;;;;;;;5056980;27;53142;-68
2022/03/04 04:42:38;;;;;;;;;55.00;44.50;;;;;;;;5055167;27;51302;-67
2022/03/04 04:45:03;;;;;;;;;55.75;45.25;;;;;;;;5050480;27;51264;-67
2022/03/04 04:47:28;;;;;;;;;59.00;47.00;;;;;;;;5055241;27;51175;-67
2022/03/04 04:49:54;;;;;;;;;49.00;40.75;;;;;;;;5057696;27;51483;-67
2022/03/04 04:52:19;;;;;;;;;52.75;44.00;;;;;;;;5052756;27;51318;-67
2022/03/04 04:54:44;;;;;;;;;59.75;47.75;;;;;;;;5056373;27;53891;-67
2022/03/04 04:57:09;;;;;;;;;56.25;47.50;;;;;;;;5055627;27;51159;-67
2022/03/04 04:59:35;;;;;;;;;57.75;47.25;;;;;;;;5053103;27;51352;-66
2022/03/04 05:02:00;;;;;;;;;61.50;49.25;;;;;;;;5048768;27;53653;-67
2022/03/04 05:04:26;;;;;;;;;57.25;45.75;;;;;;;;5050467;27;53426;-67
2022/03/04 05:06:51;;;;;;;;;57.25;48.00;;;;;;;;5055874;27;51076;-67
2022/03/04 05:09:16;;;;;;;;;57.25;48.75;;;;;;;;5052371;27;51168;-67
2022/03/04 05:11:42;;;;;;;;;60.75;50.25;;;;;;;;5050461;27;53316;-68
2022/03/04 05:14:07;;;;;;;;;58.00;48.75;;;;;;;;5038392;27;54046;-67
2022/03/04 05:16:32;;;;;;;;;63.75;51.25;;;;;;;;5053622;27;51129;-67
2022/03/04 05:18:57;;;;;;;;;63.00;50.00;;;;;;;;5056099;27;51145;-68
2022/03/04 05:21:23;;;;;;;;;59.50;48.75;;;;;;;;5054607;27;51151;-68
2022/03/04 05:24:00;;;;;;;;;57.00;47.00;;;;;;;;5052535;27;53824;-66
2022/03/04 05:26:27;;;;;;;;;62.25;50.50;;;;;;;;5055110;27;51242;-68
2022/03/04 05:28:52;;;;;;;;;60.00;49.00;;;;;;;;5053828;27;51352;-66
2022/03/04 05:31:18;;;;;;;;;64.00;51.50;;;;;;;;5055558;27;53306;-67
2022/03/04 05:33:43;;;;;;;;;55.75;47.00;;;;;;;;5058061;27;52346;-67
2022/03/04 05:36:08;;;;;;;;;60.00;49.50;;;;;;;;5054961;27;53305;-67
2022/03/04 05:38:33;;;;;;;;;64.00;49.75;;;;;;;;5054085;27;51256;-67
2022/03/04 05:40:59;;;;;;;;;68.25;52.75;;;;;;;;5055503;27;51494;-68
2022/03/04 05:43:24;;;;;;;;;60.25;49.75;;;;;;;;5055673;27;53705;-68
2022/03/04 05:45:51;;;;;;;;;61.50;50.25;;;;;;;;5057418;27;51114;-69
2022/03/04 05:48:16;;;;;;;;;63.00;50.50;;;;;;;;5056052;27;51316;-68
2022/03/04 05:50:41;;;;;;;;;61.75;50.50;;;;;;;;5053380;27;51284;-68
2022/03/04 05:53:07;;;;;;;;;60.25;49.25;;;;;;;;5052764;27;51207;-68
2022/03/04 05:55:32;;;;;;;;;63.25;50.25;;;;;;;;5052578;27;51384;-68
2022/03/04 05:57:57;;;;;;;;;56.75;48.00;;;;;;;;5067201;27;51323;-68
2022/03/04 06:00:22;;;;;;;;;61.50;50.00;;;;;;;;5056645;27;51257;-68
2022/03/04 06:02:48;;;;;;;;;65.75;50.25;;;;;;;;5053111;27;53292;-69
2022/03/04 06:05:13;;;;;;;;;62.00;50.00;;;;;;;;5052324;27;51246;-68
2022/03/04 06:07:38;;;;;;;;;60.00;49.75;;;;;;;;5052575;27;51387;-68
2022/03/04 06:10:04;;;;;;;;;60.00;50.00;;;;;;;;5055413;27;51183;-68
2022/03/04 06:12:29;;;;;;;;;62.25;50.00;;;;;;;;5051785;27;53310;-68
2022/03/04 06:14:54;;;;;;;;;56.00;46.25;;;;;;;;5049333;27;51260;-69
2022/03/04 06:17:19;;;;;;;;;60.75;49.00;;;;;;;;5053211;27;51302;-68
2022/03/04 06:19:44;;;;;;;;;58.50;48.25;;;;;;;;5058299;27;51436;-68
2022/03/04 06:22:10;;;;;;;;;56.25;46.00;;;;;;;;5055048;27;53613;-68
2022/03/04 06:24:36;;;;;;;;;61.50;49.00;;;;;;;;5055127;27;53182;-68
2022/03/04 06:27:01;;;;;;;;;60.25;48.25;;;;;;;;5054467;27;51310;-66
2022/03/04 06:29:26;;;;;;;;;56.50;46.50;;;;;;;;5055453;27;51301;-68
2022/03/04 06:31:52;;;;;;;;;57.00;47.50;;;;;;;;5055002;27;52093;-68
2022/03/04 06:34:17;;;;;;;;;53.75;44.75;;;;;;;;5050311;27;53146;-67
2022/03/04 06:36:42;;;;;;;;;60.75;48.75;;;;;;;;5052663;27;53307;-67
2022/03/04 06:39:07;;;;;;;;;59.75;48.00;;;;;;;;5054098;27;51264;-67
2022/03/04 06:41:33;;;;;;;;;55.75;45.00;;;;;;;;5054086;27;51238;-67
2022/03/04 06:43:58;;;;;;;;;54.50;44.00;;;;;;;;5054260;27;51315;-68
2022/03/04 06:46:23;;;;;;;;;58.00;48.00;;;;;;;;5053319;27;53139;-67
2022/03/04 06:48:48;;;;;;;;;51.00;43.00;;;;;;;;5053743;27;51360;-68
2022/03/04 06:51:14;;;;;;;;;57.25;46.00;;;;;;;;5059322;27;51237;-70
2022/03/04 06:53:39;;;;;;;;;56.50;44.50;;;;;;;;5058886;27;51337;-68
2022/03/04 06:56:04;;;;;;;;;56.50;43.50;;;;;;;;5054321;27;51249;-68
2022/03/04 06:58:29;;;;;;;;;51.25;42.50;;;;;;;;5053551;27;51311;-68
2022/03/04 07:00:55;;;;;;;;;49.75;42.00;;;;;;;;5053893;27;54141;-68
2022/03/04 07:03:20;;;;;;;;;54.25;43.25;;;;;;;;5057855;27;51417;-69
2022/03/04 07:05:46;;;;;;;;;53.00;43.75;;;;;;;;5050878;27;51407;-68
2022/03/04 07:08:12;;;;;;;;;54.75;45.00;;;;;;;;5053464;27;51454;-68
2022/03/04 07:10:42;;;;;;;;;49.75;40.25;;;;;;;;5045797;27;51855;-69
2022/03/04 07:13:08;;;;;;;;;52.50;43.00;;;;;;;;5049108;27;51213;-69
2022/03/04 07:15:34;;;;;;;;;51.00;41.75;;;;;;;;5055333;27;51439;-68
2022/03/04 07:17:59;;;;;;;;;48.25;40.75;;;;;;;;5054709;27;53374;-69
2022/03/04 07:20:24;;;;;;;;;55.75;44.00;;;;;;;;5050943;27;53416;-68
2022/03/04 07:22:50;;;;;;;;;57.50;45.50;;;;;;;;5055115;27;53355;-69
2022/03/04 07:25:18;;;;;;;;;59.00;46.00;;;;;;;;5050566;27;51295;-67
2022/03/04 07:27:43;;;;;;;;;57.50;48.50;;;;;;;;5055769;27;51133;-68
2022/03/04 07:30:10;;;;;;;;;59.00;47.00;;;;;;;;5060486;27;53499;-68
2022/03/04 07:32:36;;;;;;;;;56.75;45.50;;;;;;;;5041772;27;51231;-68
2022/03/04 07:35:01;;;;;;;;;53.00;44.00;;;;;;;;5053344;27;51395;-67
2022/03/04 07:37:26;;;;;;;;;58.00;45.50;;;;;;;;5055917;27;53815;-67
2022/03/04 07:39:52;;;;;;;;;51.00;43.50;;;;;;;;5051705;27;54009;-68
2022/03/04 07:42:17;;;;;;;;;53.75;44.50;;;;;;;;5058850;27;51500;-67
2022/03/04 07:44:42;;;;;;;;;62.00;49.00;;;;;;;;5053960;27;51349;-68
2022/03/04 07:47:08;;;;;;;;;58.25;47.75;;;;;;;;5057216;27;53849;-67
2022/03/04 07:49:33;;;;;;;;;62.50;49.75;;;;;;;;5060814;27;52157;-67
2022/03/04 07:51:58;;;;;;;;;58.25;47.75;;;;;;;;5056317;27;51299;-69
2022/03/04 07:54:23;;;;;;;;;56.00;47.00;;;;;;;;5063524;27;51035;-73
2022/03/04 07:56:49;;;;;;;;;56.00;47.25;;;;;;;;5058394;27;53579;-73
2022/03/04 07:59:14;;;;;;;;;58.75;47.00;;;;;;;;5057391;27;53004;-73
2022/03/04 08:01:39;;;;;;;;;64.25;49.25;;;;;;;;5061026;27;53396;-73
2022/03/04 08:04:05;;;;;;;;;59.25;46.75;;;;;;;;5059429;27;52599;-73
2022/03/04 08:06:31;;;;;;;;;58.00;47.00;;;;;;;;5057865;27;53148;-72
2022/03/04 08:08:56;;;;;;;;;61.75;50.00;;;;;;;;5058604;27;53358;-72
2022/03/04 08:11:21;;;;;;;;;56.00;45.25;;;;;;;;5059596;27;51131;-71
2022/03/04 08:13:47;;;;;;;;;64.00;50.50;;;;;;;;5057167;27;52133;-72
2022/03/04 08:16:12;;;;;;;;;56.25;46.75;;;;;;;;5055601;27;51137;-72
2022/03/04 08:18:37;;;;;;;;;63.25;50.00;;;;;;;;5054961;27;51201;-71
2022/03/04 08:21:03;;;;;;;;;64.00;51.00;;;;;;;;5056915;27;51250;-72
2022/03/04 08:23:28;;;;;;;;;63.50;49.25;;;;;;;;5058972;27;51243;-71
2022/03/04 08:25:55;;;;;;;;;61.00;50.25;;;;;;;;5061094;27;53488;-71
2022/03/04 08:28:20;;;;;;;;;63.00;50.25;;;;;;;;5055174;27;53148;-71
2022/03/04 08:30:46;;;;;;;;;68.25;52.00;;;;;;;;5060771;27;51202;-71
2022/03/04 08:33:11;;;;;;;;;64.00;50.00;;;;;;;;5061057;27;53413;-71
2022/03/04 08:35:36;;;;;;;;;65.00;52.25;;;;;;;;5055801;27;51144;-72
2022/03/04 08:38:02;;;;;;;;;67.25;52.75;;;;;;;;5054519;27;51963;-72
2022/03/04 08:40:27;;;;;;;;;67.00;52.00;;;;;;;;5051128;27;51224;-72
2022/03/04 08:42:53;;;;;;;;;64.00;50.75;;;;;;;;5059489;27;51556;-72
2022/03/04 08:45:20;;;;;;;;;63.25;50.50;;;;;;;;5054587;27;51575;-72
2022/03/04 08:47:46;;;;;;;;;60.75;50.25;;;;;;;;5048859;27;52466;-71
2022/03/04 08:50:12;;;;;;;;;60.75;50.25;;;;;;;;5055405;27;51296;-71
2022/03/04 08:52:37;;;;;;;;;58.75;49.00;;;;;;;;5057682;27;51316;-71
2022/03/04 08:55:03;;;;;;;;;62.50;50.00;;;;;;;;5053025;27;53417;-72
2022/03/04 08:57:30;;;;;;;;;64.25;48.75;;;;;;;;5051946;27;51897;-72
2022/03/04 08:59:55;;;;;;;;;63.50;51.00;;;;;;;;5052335;27;51283;-71
2022/03/04 09:02:20;;;;;;;;;63.00;50.75;;;;;;;;5049727;27;51478;-71
2022/03/04 09:04:45;;;;;;;;;61.75;49.75;;;;;;;;5052896;27;53109;-70
2022/03/04 09:07:10;;;;;;;;;63.00;50.25;;;;;;;;5052410;27;52046;-70
2022/03/04 09:09:36;;;;;;;;;64.25;51.75;;;;;;;;5056302;27;51277;-71
2022/03/04 09:12:01;;;;;;;;;66.50;53.00;;;;;;;;5050928;27;51132;-71
2022/03/04 09:14:26;;;;;;;;;60.00;50.00;;;;;;;;5055555;27;51410;-71
2022/03/04 09:16:52;;;;;;;;;63.50;50.75;;;;;;;;5055199;27;53245;-70
2022/03/04 09:19:18;;;;;;;;;68.50;51.75;;;;;;;;5055512;27;51234;-71
2022/03/04 09:21:43;;;;;;;;;63.75;51.00;;;;;;;;5057587;27;51201;-71
2022/03/04 09:24:08;;;;;;;;;65.25;52.50;;;;;;;;5055395;27;51439;-70
2022/03/04 09:26:34;;;;;;;;;65.00;51.00;;;;;;;;5059288;27;52267;-72
2022/03/04 09:28:59;;;;;;;;;62.00;51.00;;;;;;;;5054047;27;51415;-72
2022/03/04 09:31:25;;;;;;;;;66.00;51.50;;;;;;;;5056886;27;51116;-68
2022/03/04 09:33:50;;;;;;;;;66.50;51.75;;;;;;;;5056481;27;51403;-69
2022/03/04 09:36:15;;;;;;;;;67.25;53.75;;;;;;;;5054563;27;52744;-68
2022/03/04 09:38:41;;;;;;;;;66.75;52.25;;;;;;;;5052941;27;51142;-69
2022/03/04 09:41:07;;;;;;;;;67.50;53.00;;;;;;;;5058974;27;53486;-69
2022/03/04 09:43:33;;;;;;;;;62.75;51.00;;;;;;;;5051970;27;51365;-69
2022/03/04 09:45:58;;;;;;;;;64.75;52.75;;;;;;;;5054339;27;51238;-68
2022/03/04 09:48:24;;;;;;;;;66.00;53.00;;;;;;;;5057031;27;51281;-67
2022/03/04 09:50:49;;;;;;;;;68.00;55.00;;;;;;;;5054323;27;52190;-68
2022/03/04 09:53:15;;;;;;;;;71.75;56.25;;;;;;;;5058637;27;51368;-67
2022/03/04 09:55:41;;;;;;;;;59.75;50.50;;;;;;;;5054625;27;51830;-68
2022/03/04 09:58:13;;;;;;;;;69.00;54.25;;;;;;;;5056920;27;51382;-68
2022/03/04 10:00:39;;;;;;;;;67.50;54.25;;;;;;;;5050859;27;51163;-68
2022/03/04 10:03:06;;;;;;;;;69.25;55.75;;;;;;;;5057699;27;51519;-67
2022/03/04 10:05:31;;;;;;;;;66.00;52.75;;;;;;;;5056770;27;52731;-67
2022/03/04 10:07:56;;;;;;;;;67.00;54.25;;;;;;;;5051415;27;51146;-68
2022/03/04 10:10:22;;;;;;;;;72.75;55.75;;;;;;;;5054068;27;51542;-68
2022/03/04 10:12:47;;;;;;;;;69.50;55.50;;;;;;;;5053017;27;51302;-69
2022/03/04 10:15:13;;;;;;;;;67.75;54.75;;;;;;;;5056299;27;52634;-67
2022/03/04 10:17:38;;;;;;;;;66.25;53.25;;;;;;;;5054959;27;52621;-68
2022/03/04 10:20:05;;;;;;;;;68.25;54.50;;;;;;;;5051405;27;51230;-67
2022/03/04 10:22:45;;;;;;;;;67.25;53.00;;;;;;;;5056375;27;51199;-67
2022/03/04 10:25:14;;;;;;;;;65.50;53.50;;;;;;;;5081238;27;52962;-66
2022/03/04 10:27:39;;;;;;;;;66.25;53.00;;;;;;;;5044540;27;52607;-67
2022/03/04 10:30:05;;;;;;;;;63.75;49.25;;;;;;;;5047148;27;53515;-66
2022/03/04 10:32:32;;;;;;;;;70.25;56.00;;;;;;;;5056075;27;51622;-66
2022/03/04 10:35:05;;;;;;;;;68.25;54.50;;;;;;;;5046124;27;51801;-66
2022/03/04 10:37:56;;;;;;;;;71.75;55.75;;;;;;;;5050567;27;51096;-66
2022/03/04 10:40:24;;;;;;;;;69.00;54.50;;;;;;;;5052816;27;51161;-66
2022/03/04 10:42:52;;;;;;;;;67.25;54.25;;;;;;;;5052259;27;51369;-67
2022/03/04 10:45:34;;;;;;;;;71.50;57.00;;;;;;;;5048686;27;51224;-66
2022/03/04 10:48:03;;;;;;;;;70.00;55.75;;;;;;;;5035810;27;53306;-66
2022/03/04 10:50:33;;;;;;;;;69.75;55.75;;;;;;;;5047660;27;51226;-66
2022/03/04 10:52:59;;;;;;;;;66.75;54.00;;;;;;;;5045467;27;51178;-66
2022/03/04 10:55:29;;;;;;;;;68.25;55.00;;;;;;;;5042591;27;52937;-67
2022/03/04 10:57:54;;;;;;;;;68.25;55.00;;;;;;;;5029858;27;51263;-66
2022/03/04 11:00:23;;;;;;;;;67.75;54.75;;;;;;;;5046094;27;51447;-66
2022/03/04 11:02:49;;;;;;;;;72.00;56.50;;;;;;;;5046305;27;54353;-64
2022/03/04 11:05:14;;;;;;;;;71.50;56.00;;;;;;;;5049404;27;51998;-66
2022/03/04 11:07:42;;;;;;;;;69.00;54.00;;;;;;;;5046088;27;51453;-65
2022/03/04 11:10:07;;;;;;;;;68.00;54.00;;;;;;;;5054138;27;51475;-66
2022/03/04 11:12:33;;;;;;;;;70.00;56.00;;;;;;;;5054294;27;51090;-65
2022/03/04 11:14:59;;;;;;;;;67.00;54.25;;;;;;;;5057529;27;53472;-65
2022/03/04 11:17:25;;;;;;;;;68.25;52.75;;;;;;;;5054751;27;51269;-64
2022/03/04 11:19:51;;;;;;;;;69.75;54.50;;;;;;;;5053655;27;51433;-65
2022/03/04 11:22:17;;;;;;;;;72.25;56.00;;;;;;;;5052141;27;51453;-65
2022/03/04 11:24:42;;;;;;;;;72.25;56.00;;;;;;;;5052625;27;51184;-66
2022/03/04 11:27:10;;;;;;;;;71.00;56.50;;;;;;;;5051392;27;51400;-65
2022/03/04 11:29:36;;;;;;;;;70.50;55.00;;;;;;;;5055326;27;51367;-66
2022/03/04 11:32:03;;;;;;;;;71.00;58.75;;;;;;;;5049572;27;51333;-65
2022/03/04 11:34:42;;;;;;;;;70.00;55.00;;;;;;;;5050925;27;51841;-65
2022/03/04 11:37:18;;;;;;;;;67.25;53.75;;;;;;;;5055115;27;51238;-65
2022/03/04 11:40:35;;;;;;;;;70.50;56.00;;;;;;;;5058337;27;51474;-64
2022/03/04 11:43:00;;;;;;;;;68.75;55.00;;;;;;;;5034172;27;51183;-65
2022/03/04 11:45:35;;;;;;;;;75.00;60.00;;;;;;;;5053026;27;51369;-65
2022/03/04 11:48:04;;;;;;;;;72.00;56.00;;;;;;;;5052348;27;52055;-65
2022/03/04 11:50:30;;;;;;;;;70.75;55.75;;;;;;;;5048116;27;52183;-66
2022/03/04 11:53:25;;;;;;;;;70.25;55.00;;;;;;;;5052785;27;53110;-66
2022/03/04 11:56:14;;;;;;;;;66.00;53.00;;;;;;;;5042346;27;51459;-66
2022/03/04 11:58:58;;;;;;;;;71.00;55.75;;;;;;;;5053982;27;53008;-65
2022/03/04 12:01:33;;;;;;;;;68.75;55.00;;;;;;;;5058084;27;51356;-66
2022/03/04 12:04:15;;;;;;;;;72.00;56.50;;;;;;;;5049420;27;51228;-66
2022/03/04 12:06:41;;;;;;;;;71.50;58.25;;;;;;;;5050409;27;52545;-66
2022/03/04 12:09:25;;;;;;;;;68.75;56.00;;;;;;;;5050187;27;51293;-66
2022/03/04 12:12:08;;;;;;;;;68.75;55.25;;;;;;;;5052698;27;51332;-66
2022/03/04 12:14:34;;;;;;;;;69.50;54.75;;;;;;;;5058710;27;51301;-66
2022/03/04 12:16:59;;;;;;;;;71.00;55.75;;;;;;;;5052581;27;52016;-66
2022/03/04 12:19:28;;;;;;;;;71.50;55.25;;;;;;;;5058816;27;51305;-66
2022/03/04 12:21:56;;;;;;;;;68.50;55.00;;;;;;;;5052215;27;51316;-68
2022/03/04 12:24:27;;;;;;;;;69.50;55.25;;;;;;;;5050093;27;51158;-65
2022/03/04 12:26:52;;;;;;;;;72.50;56.50;;;;;;;;5054648;27;51287;-66
2022/03/04 12:29:18;;;;;;;;;74.75;62.00;;;;;;;;5057685;27;51309;-67
2022/03/04 12:31:44;;;;;;;;;69.25;54.00;;;;;;;;5052274;27;51175;-66
2022/03/04 12:34:31;;;;;;;;;72.00;57.25;;;;;;;;5054780;27;51097;-66
2022/03/04 12:36:58;;;;;;;;;70.25;56.25;;;;;;;;5063771;27;52547;-66
2022/03/04 12:39:23;;;;;;;;;72.25;58.50;;;;;;;;5054343;27;53541;-66
2022/03/04 12:41:49;;;;;;;;;72.00;59.75;;;;;;;;5050529;27;51200;-66
2022/03/04 12:44:14;;;;;;;;;70.00;56.75;;;;;;;;5049556;27;51256;-65
2022/03/04 12:46:41;;;;;;;;;65.25;53.00;;;;;;;;5048461;27;52867;-66
2022/03/04 12:49:07;;;;;;;;;69.50;55.00;;;;;;;;5054434;27;51181;-66
2022/03/04 12:51:34;;;;;;;;;73.75;60.25;;;;;;;;5060224;27;51283;-67
2022/03/04 12:54:01;;;;;;;;;70.00;56.50;;;;;;;;5052142;27;51182;-66
2022/03/04 12:56:26;;;;;;;;;65.75;52.50;;;;;;;;5054135;27;53308;-67
2022/03/04 12:58:59;;;;;;;;;65.25;51.50;;;;;;;;5055945;27;51174;-66
2022/03/04 13:01:25;;;;;;;;;68.75;55.00;;;;;;;;5052499;27;51247;-66
2022/03/04 13:03:52;;;;;;;;;68.75;54.50;;;;;;;;5053760;27;53343;-65
2022/03/04 13:06:18;;;;;;;;;70.25;55.00;;;;;;;;5054770;27;51245;-66
2022/03/04 13:08:59;;;;;;;;;62.00;49.50;;;;;;;;5049429;27;51293;-66
2022/03/04 13:11:25;;;;;;;;;67.50;52.75;;;;;;;;5058703;27;53293;-65
2022/03/04 13:14:04;;;;;;;;;66.50;52.75;;;;;;;;5050360;27;51275;-65
2022/03/04 13:16:46;;;;;;;;;68.75;54.50;;;;;;;;5052386;27;52169;-67
2022/03/04 13:19:21;;;;;;;;;67.75;53.50;;;;;;;;5059346;27;51540;-66
2022/03/04 13:21:46;;;;;;;;;66.25;52.75;;;;;;;;5052824;27;51241;-67
2022/03/04 13:24:11;;;;;;;;;63.75;51.00;;;;;;;;5054772;27;51148;-66
2022/03/04 13:26:37;;;;;;;;;65.75;53.00;;;;;;;;5052535;27;51180;-65
2022/03/04 13:29:03;;;;;;;;;63.75;51.75;;;;;;;;5052829;27;51390;-66
2022/03/04 13:31:29;;;;;;;;;65.00;53.00;;;;;;;;5051399;27;51247;-65
2022/03/04 13:34:03;;;;;;;;;64.00;51.25;;;;;;;;5052588;27;51364;-65
2022/03/04 13:36:44;;;;;;;;;63.75;50.75;;;;;;;;5046491;27;52476;-65
2022/03/04 13:39:19;;;;;;;;;65.00;52.25;;;;;;;;5049453;27;51165;-65
2022/03/04 13:41:45;;;;;;;;;64.50;52.00;;;;;;;;5053570;27;53340;-65
2022/03/04 13:44:11;;;;;;;;;62.25;50.50;;;;;;;;5059933;27;51316;-65
2022/03/04 13:46:55;;;;;;;;;66.75;53.00;;;;;;;;5049300;27;53599;-65
2022/03/04 13:49:20;;;;;;;;;65.75;52.00;;;;;;;;5050841;27;51200;-65
2022/03/04 13:52:06;;;;;;;;;64.50;52.25;;;;;;;;5056320;27;51335;-67
2022/03/04 13:54:50;;;;;;;;;64.75;51.00;;;;;;;;5055213;27;51338;-68
2022/03/04 13:57:29;;;;;;;;;62.25;50.00;;;;;;;;5053561;27;52918;-66
2022/03/04 14:00:03;;;;;;;;;64.00;51.25;;;;;;;;5051602;27;51294;-70
2022/03/04 14:02:37;;;;;;;;;65.50;52.00;;;;;;;;5058052;27;51361;-69
2022/03/04 14:05:03;;;;;;;;;62.25;49.00;;;;;;;;5055024;27;51181;-69
2022/03/04 14:07:38;;;;;;;;;58.75;48.50;;;;;;;;5056857;27;51204;-69
2022/03/04 14:10:08;;;;;;;;;61.75;50.25;;;;;;;;5057219;27;51188;-68
2022/03/04 14:12:33;;;;;;;;;64.00;50.50;;;;;;;;5069154;27;51571;-70
2022/03/04 14:15:00;;;;;;;;;61.00;48.75;;;;;;;;5094206;27;51150;-69